createdAt,value
2023-11-04T00:00:10.290Z,9.63
2023-11-04T00:01:11.362Z,9.60
2023-11-04T00:01:53.105Z,9.63
2023-11-04T00:02:43.256Z,9.60
2023-11-04T00:03:34.248Z,9.58
2023-11-04T00:04:25.214Z,9.58
2023-11-04T00:05:16.016Z,9.57
2023-11-04T00:06:06.741Z,9.56
2023-11-04T00:06:57.559Z,9.57
2023-11-04T00:07:48.315Z,9.57
2023-11-04T00:08:39.097Z,9.57
2023-11-04T00:09:41.859Z,9.56
2023-11-04T00:10:21.924Z,9.53
2023-11-04T00:11:12.073Z,9.56
2023-11-04T00:12:02.842Z,9.53
2023-11-04T00:12:53.712Z,9.52
2023-11-04T00:13:44.455Z,9.53
2023-11-04T00:14:35.187Z,9.53
2023-11-04T00:15:26.076Z,9.52
2023-11-04T00:16:16.802Z,9.52
2023-11-04T00:17:07.604Z,9.53
2023-11-04T00:17:58.420Z,9.52
2023-11-04T00:18:49.206Z,9.53
2023-11-04T00:19:39.957Z,9.53
2023-11-04T00:20:39.345Z,9.53
2023-11-04T00:21:22.766Z,9.53
2023-11-04T00:22:12.870Z,9.56
2023-11-04T00:23:03.663Z,9.52
2023-11-04T00:23:54.436Z,9.56
2023-11-04T00:24:45.260Z,9.52
2023-11-04T00:25:36.014Z,9.52
2023-11-04T00:26:26.805Z,9.49
2023-11-04T00:27:17.760Z,9.49
2023-11-04T00:28:08.858Z,9.49
2023-11-04T00:28:59.614Z,9.48
2023-11-04T00:29:50.380Z,9.48
2023-11-04T00:30:41.237Z,9.49
2023-11-04T00:31:32.048Z,9.48
2023-11-04T00:32:22.819Z,9.48
2023-11-04T00:33:13.712Z,9.48
2023-11-04T00:34:04.744Z,9.46
2023-11-04T00:34:55.614Z,9.45
2023-11-04T00:35:46.377Z,9.45
2023-11-04T00:36:37.175Z,9.46
2023-11-04T00:37:27.924Z,9.40
2023-11-04T00:38:18.699Z,9.43
2023-11-04T00:39:09.483Z,9.43
2023-11-04T00:40:00.280Z,9.43
2023-11-04T00:40:51.042Z,9.43
2023-11-04T00:41:41.834Z,9.43
2023-11-04T00:42:33.292Z,9.45
2023-11-04T00:43:23.372Z,9.45
2023-11-04T00:44:14.153Z,9.43
2023-11-04T00:45:04.917Z,9.46
2023-11-04T00:45:55.720Z,9.46
2023-11-04T00:46:46.486Z,9.46
2023-11-04T00:47:37.341Z,9.48
2023-11-04T00:48:28.189Z,9.50
2023-11-04T00:49:19.180Z,9.50
2023-11-04T00:50:17.528Z,9.49
2023-11-04T00:51:02.017Z,9.52
2023-11-04T00:51:52.166Z,9.50
2023-11-04T00:52:42.944Z,9.50
2023-11-04T00:53:33.745Z,9.53
2023-11-04T00:54:24.549Z,9.53
2023-11-04T00:55:15.321Z,9.52
2023-11-04T00:56:06.129Z,9.53
2023-11-04T00:56:56.897Z,9.53
2023-11-04T00:57:47.736Z,9.52
2023-11-04T00:58:38.472Z,9.52
2023-11-04T00:59:29.261Z,9.52
2023-11-04T01:00:20.098Z,9.52
2023-11-04T01:01:10.856Z,9.52
2023-11-04T01:02:01.651Z,9.52
2023-11-04T01:02:52.667Z,9.53
2023-11-04T01:03:43.569Z,9.52
2023-11-04T01:04:34.491Z,9.52
2023-11-04T01:05:25.294Z,9.53
2023-11-04T01:06:16.143Z,9.53
2023-11-04T01:07:06.871Z,9.53
2023-11-04T01:07:57.734Z,9.53
2023-11-04T01:08:48.490Z,9.52
2023-11-04T01:09:39.301Z,9.52
2023-11-04T01:10:30.054Z,9.53
2023-11-04T01:11:20.814Z,9.53
2023-11-04T01:12:11.675Z,9.50
2023-11-04T01:13:02.469Z,9.50
2023-11-04T01:13:53.259Z,9.52
2023-11-04T01:14:44.026Z,9.50
2023-11-04T01:15:34.843Z,9.52
2023-11-04T01:16:25.595Z,9.50
2023-11-04T01:17:16.424Z,9.49
2023-11-04T01:18:07.220Z,9.50
2023-11-04T01:18:57.965Z,9.49
2023-11-04T01:19:48.864Z,9.48
2023-11-04T01:20:39.659Z,9.49
2023-11-04T01:21:30.443Z,9.49
2023-11-04T01:22:21.206Z,9.45
2023-11-04T01:23:12.001Z,9.46
2023-11-04T01:24:02.778Z,9.45
2023-11-04T01:24:53.638Z,9.43
2023-11-04T01:25:44.424Z,9.42
2023-11-04T01:26:35.253Z,9.40
2023-11-04T01:27:25.993Z,9.39
2023-11-04T01:28:16.822Z,9.40
2023-11-04T01:29:07.553Z,9.39
2023-11-04T01:29:58.358Z,9.40
2023-11-04T01:30:49.149Z,9.38
2023-11-04T01:31:40.108Z,9.39
2023-11-04T01:32:30.945Z,9.38
2023-11-04T01:33:22.019Z,9.38
2023-11-04T01:34:13.049Z,9.35
2023-11-04T01:35:03.938Z,9.34
2023-11-04T01:35:54.724Z,9.35
2023-11-04T01:36:45.560Z,9.32
2023-11-04T01:37:36.393Z,9.34
2023-11-04T01:38:27.495Z,9.31
2023-11-04T01:39:18.648Z,9.32
2023-11-04T01:40:09.545Z,9.32
2023-11-04T01:41:00.316Z,9.28
2023-11-04T01:41:51.102Z,9.30
2023-11-04T01:42:42.116Z,9.30
2023-11-04T01:43:33.014Z,9.30
2023-11-04T01:44:23.866Z,9.28
2023-11-04T01:45:14.858Z,9.28
2023-11-04T01:46:05.740Z,9.27
2023-11-04T01:46:56.635Z,9.27
2023-11-04T01:47:47.658Z,9.25
2023-11-04T01:48:38.529Z,9.24
2023-11-04T01:49:29.420Z,9.23
2023-11-04T01:50:20.366Z,9.23
2023-11-04T01:51:11.417Z,9.21
2023-11-04T01:52:02.052Z,9.21
2023-11-04T01:52:53.132Z,9.20
2023-11-04T01:53:44.401Z,9.18
2023-11-04T01:54:35.137Z,9.16
2023-11-04T01:55:26.276Z,9.16
2023-11-04T01:56:17.274Z,9.16
2023-11-04T01:57:08.186Z,9.15
2023-11-04T01:57:59.012Z,9.15
2023-11-04T01:58:50.158Z,9.13
2023-11-04T01:59:41.157Z,9.12
2023-11-04T02:00:32.191Z,9.12
2023-11-04T02:01:23.320Z,9.12
2023-11-04T02:02:14.513Z,9.10
2023-11-04T02:03:05.230Z,9.12
2023-11-04T02:03:56.500Z,9.12
2023-11-04T02:04:47.501Z,9.10
2023-11-04T02:05:38.121Z,9.12
2023-11-04T02:06:29.427Z,9.12
2023-11-04T02:07:20.460Z,9.12
2023-11-04T02:08:11.209Z,9.10
2023-11-04T02:09:02.116Z,9.12
2023-11-04T02:09:53.199Z,9.12
2023-11-04T02:10:44.039Z,9.13
2023-11-04T02:11:34.951Z,9.13
2023-11-04T02:12:25.973Z,9.13
2023-11-04T02:13:16.625Z,9.13
2023-11-04T02:14:07.790Z,9.16
2023-11-04T02:14:58.818Z,9.15
2023-11-04T02:15:50.048Z,9.15
2023-11-04T02:16:41.000Z,9.15
2023-11-04T02:17:32.130Z,9.15
2023-11-04T02:18:23.045Z,9.15
2023-11-04T02:19:14.157Z,9.16
2023-11-04T02:20:05.270Z,9.16
2023-11-04T02:20:56.531Z,9.20
2023-11-04T02:21:47.789Z,9.21
2023-11-04T02:22:39.024Z,9.20
2023-11-04T02:23:29.883Z,9.20
2023-11-04T02:24:20.974Z,9.18
2023-11-04T02:25:11.811Z,9.20
2023-11-04T02:26:02.891Z,9.18
2023-11-04T02:26:53.782Z,9.20
2023-11-04T02:27:44.862Z,9.16
2023-11-04T02:28:35.870Z,9.16
2023-11-04T02:29:26.931Z,9.16
2023-11-04T02:30:17.871Z,9.15
2023-11-04T02:31:08.725Z,9.15
2023-11-04T02:31:59.610Z,9.13
2023-11-04T02:32:50.695Z,9.15
2023-11-04T02:33:41.663Z,9.13
2023-11-04T02:34:32.732Z,9.13
2023-11-04T02:35:23.561Z,9.12
2023-11-04T02:36:14.521Z,9.12
2023-11-04T02:37:05.412Z,9.12
2023-11-04T02:37:56.496Z,9.10
2023-11-04T02:38:47.655Z,9.10
2023-11-04T02:39:38.473Z,9.09
2023-11-04T02:40:29.388Z,9.09
2023-11-04T02:41:20.563Z,9.09
2023-11-04T02:42:11.633Z,9.05
2023-11-04T02:43:02.927Z,9.04
2023-11-04T02:43:53.937Z,9.05
2023-11-04T02:44:44.924Z,9.05
2023-11-04T02:45:35.971Z,9.04
2023-11-04T02:46:26.772Z,9.02
2023-11-04T02:47:17.706Z,9.02
2023-11-04T02:48:08.921Z,9.01
2023-11-04T02:48:59.582Z,9.01
2023-11-04T02:49:50.632Z,9.02
2023-11-04T02:50:41.731Z,8.99
2023-11-04T02:51:32.455Z,8.97
2023-11-04T02:52:23.713Z,8.96
2023-11-04T02:53:14.764Z,8.96
2023-11-04T02:54:05.779Z,8.96
2023-11-04T02:54:56.887Z,8.94
2023-11-04T02:55:47.824Z,8.91
2023-11-04T02:56:38.832Z,8.91
2023-11-04T02:57:29.777Z,8.90
2023-11-04T02:58:20.789Z,8.88
2023-11-04T02:59:11.943Z,8.86
2023-11-04T03:00:03.124Z,8.86
2023-11-04T03:00:54.103Z,8.84
2023-11-04T03:01:45.131Z,8.83
2023-11-04T03:02:36.171Z,8.83
2023-11-04T03:03:27.472Z,8.78
2023-11-04T03:04:18.320Z,8.76
2023-11-04T03:05:08.933Z,8.75
2023-11-04T03:05:59.984Z,8.72
2023-11-04T03:06:50.905Z,8.71
2023-11-04T03:07:42.119Z,8.69
2023-11-04T03:08:33.171Z,8.68
2023-11-04T03:09:23.984Z,8.66
2023-11-04T03:10:14.673Z,8.63
2023-11-04T03:11:05.577Z,8.57
2023-11-04T03:11:56.415Z,8.55
2023-11-04T03:12:47.549Z,8.53
2023-11-04T03:13:38.620Z,8.51
2023-11-04T03:14:29.935Z,8.47
2023-11-04T03:15:21.083Z,8.45
2023-11-04T03:16:11.769Z,8.42
2023-11-04T03:17:03.016Z,8.39
2023-11-04T03:17:54.292Z,8.39
2023-11-04T03:18:45.192Z,8.36
2023-11-04T03:19:36.028Z,8.33
2023-11-04T03:20:27.047Z,8.32
2023-11-04T03:21:18.117Z,8.29
2023-11-04T03:22:08.848Z,8.29
2023-11-04T03:22:59.617Z,8.26
2023-11-04T03:23:50.410Z,8.26
2023-11-04T03:24:41.238Z,8.28
2023-11-04T03:25:31.986Z,8.25
2023-11-04T03:26:22.766Z,8.22
2023-11-04T03:27:13.562Z,8.22
2023-11-04T03:28:04.329Z,8.20
2023-11-04T03:28:55.092Z,8.21
2023-11-04T03:29:45.914Z,8.17
2023-11-04T03:30:36.765Z,8.15
2023-11-04T03:31:27.511Z,8.14
2023-11-04T03:32:18.309Z,8.14
2023-11-04T03:33:09.145Z,8.15
2023-11-04T03:33:59.973Z,8.12
2023-11-04T03:34:50.772Z,8.12
2023-11-04T03:35:41.569Z,8.14
2023-11-04T03:36:32.375Z,8.11
2023-11-04T03:37:23.135Z,8.11
2023-11-04T03:38:13.937Z,8.07
2023-11-04T03:39:04.736Z,8.07
2023-11-04T03:39:55.569Z,8.08
2023-11-04T03:40:46.339Z,8.10
2023-11-04T03:41:37.102Z,8.10
2023-11-04T03:42:27.920Z,8.08
2023-11-04T03:43:18.710Z,8.08
2023-11-04T03:44:09.446Z,8.07
2023-11-04T03:45:00.239Z,8.08
2023-11-04T03:45:51.088Z,8.04
2023-11-04T03:46:41.836Z,8.07
2023-11-04T03:47:32.722Z,8.04
2023-11-04T03:48:23.603Z,8.07
2023-11-04T03:49:14.537Z,8.03
2023-11-04T03:50:05.288Z,8.02
2023-11-04T03:50:56.072Z,7.99
2023-11-04T03:51:46.922Z,7.97
2023-11-04T03:52:37.674Z,7.96
2023-11-04T03:53:28.455Z,7.93
2023-11-04T03:54:19.262Z,7.94
2023-11-04T03:55:10.030Z,7.92
2023-11-04T03:56:00.825Z,7.93
2023-11-04T03:56:51.618Z,7.92
2023-11-04T03:57:42.447Z,7.92
2023-11-04T03:58:33.194Z,7.92
2023-11-04T03:59:23.990Z,7.92
2023-11-04T04:00:14.766Z,7.92
2023-11-04T04:01:05.563Z,7.93
2023-11-04T04:01:56.371Z,7.92
2023-11-04T04:02:47.163Z,7.90
2023-11-04T04:03:38.006Z,7.90
2023-11-04T04:04:28.899Z,7.89
2023-11-04T04:05:19.794Z,7.89
2023-11-04T04:06:10.564Z,7.89
2023-11-04T04:07:01.386Z,7.85
2023-11-04T04:07:52.164Z,7.85
2023-11-04T04:08:42.941Z,7.85
2023-11-04T04:09:33.801Z,7.85
2023-11-04T04:10:24.532Z,7.84
2023-11-04T04:11:15.385Z,7.85
2023-11-04T04:12:06.118Z,7.84
2023-11-04T04:12:56.964Z,7.85
2023-11-04T04:13:47.742Z,7.85
2023-11-04T04:14:38.536Z,7.85
2023-11-04T04:15:29.362Z,7.84
2023-11-04T04:16:20.100Z,7.82
2023-11-04T04:17:10.903Z,7.82
2023-11-04T04:18:01.821Z,7.82
2023-11-04T04:18:52.861Z,7.81
2023-11-04T04:19:43.696Z,7.81
2023-11-04T04:20:34.475Z,7.79
2023-11-04T04:21:25.315Z,7.79
2023-11-04T04:22:16.052Z,7.79
2023-11-04T04:23:06.860Z,7.77
2023-11-04T04:23:57.632Z,7.77
2023-11-04T04:24:48.479Z,7.77
2023-11-04T04:25:39.238Z,7.74
2023-11-04T04:26:30.015Z,7.72
2023-11-04T04:27:20.850Z,7.72
2023-11-04T04:28:11.632Z,7.74
2023-11-04T04:29:02.399Z,7.72
2023-11-04T04:29:53.187Z,7.74
2023-11-04T04:30:44.002Z,7.72
2023-11-04T04:31:34.763Z,7.71
2023-11-04T04:32:25.653Z,7.71
2023-11-04T04:33:16.535Z,7.67
2023-11-04T04:34:07.276Z,7.69
2023-11-04T04:34:58.043Z,7.69
2023-11-04T04:35:48.829Z,7.67
2023-11-04T04:36:39.618Z,7.67
2023-11-04T04:37:30.412Z,7.67
2023-11-04T04:38:21.190Z,7.69
2023-11-04T04:39:11.986Z,7.67
2023-11-04T04:40:02.792Z,7.66
2023-11-04T04:40:53.556Z,7.63
2023-11-04T04:41:44.314Z,7.66
2023-11-04T04:42:35.128Z,7.63
2023-11-04T04:43:25.880Z,7.62
2023-11-04T04:44:16.659Z,7.58
2023-11-04T04:45:07.452Z,7.58
2023-11-04T04:45:59.948Z,7.55
2023-11-04T04:46:49.517Z,7.56
2023-11-04T04:47:40.368Z,7.53
2023-11-04T04:48:31.241Z,7.55
2023-11-04T04:49:22.064Z,7.55
2023-11-04T04:50:12.832Z,7.55
2023-11-04T04:51:03.656Z,7.53
2023-11-04T04:51:54.488Z,7.52
2023-11-04T04:52:45.243Z,7.53
2023-11-04T04:53:36.038Z,7.53
2023-11-04T04:54:26.835Z,7.53
2023-11-04T04:55:17.620Z,7.55
2023-11-04T04:56:08.428Z,7.53
2023-11-04T04:56:59.169Z,7.50
2023-11-04T04:57:50.019Z,7.49
2023-11-04T04:58:40.739Z,7.49
2023-11-04T04:59:31.523Z,7.52
2023-11-04T05:00:22.320Z,7.49
2023-11-04T05:01:13.095Z,7.47
2023-11-04T05:02:03.885Z,7.49
2023-11-04T05:02:54.768Z,7.47
2023-11-04T05:03:45.697Z,7.47
2023-11-04T05:04:36.509Z,7.44
2023-11-04T05:05:27.333Z,7.47
2023-11-04T05:06:18.070Z,7.45
2023-11-04T05:07:08.859Z,7.47
2023-11-04T05:07:59.688Z,7.45
2023-11-04T05:08:50.511Z,7.44
2023-11-04T05:09:41.316Z,7.44
2023-11-04T05:10:32.088Z,7.44
2023-11-04T05:11:22.846Z,7.42
2023-11-04T05:12:13.667Z,7.42
2023-11-04T05:13:04.389Z,7.42
2023-11-04T05:13:55.163Z,7.41
2023-11-04T05:14:45.952Z,7.42
2023-11-04T05:15:36.764Z,7.41
2023-11-04T05:16:27.552Z,7.41
2023-11-04T05:17:18.338Z,7.41
2023-11-04T05:18:09.212Z,7.40
2023-11-04T05:19:00.690Z,7.42
2023-11-04T05:19:50.826Z,7.40
2023-11-04T05:20:41.603Z,7.42
2023-11-04T05:21:32.401Z,7.41
2023-11-04T05:22:23.173Z,7.40
2023-11-04T05:23:13.981Z,7.40
2023-11-04T05:24:04.752Z,7.40
2023-11-04T05:24:55.555Z,7.38
2023-11-04T05:25:46.344Z,7.35
2023-11-04T05:26:37.110Z,7.37
2023-11-04T05:27:27.944Z,7.37
2023-11-04T05:28:18.703Z,7.37
2023-11-04T05:29:09.540Z,7.38
2023-11-04T05:30:00.305Z,7.38
2023-11-04T05:30:51.054Z,7.38
2023-11-04T05:31:41.841Z,7.37
2023-11-04T05:32:32.684Z,7.38
2023-11-04T05:33:23.550Z,7.37
2023-11-04T05:34:14.219Z,7.37
2023-11-04T05:35:05.157Z,7.40
2023-11-04T05:35:55.793Z,7.37
2023-11-04T05:36:46.863Z,7.37
2023-11-04T05:37:37.798Z,7.38
2023-11-04T05:38:28.565Z,7.42
2023-11-04T05:39:19.309Z,7.40
2023-11-04T05:40:10.081Z,7.37
2023-11-04T05:41:00.847Z,7.38
2023-11-04T05:41:51.577Z,7.37
2023-11-04T05:42:42.371Z,7.34
2023-11-04T05:43:33.124Z,7.35
2023-11-04T05:44:23.897Z,7.32
2023-11-04T05:45:14.669Z,7.34
2023-11-04T05:46:05.438Z,7.34
2023-11-04T05:46:56.214Z,7.32
2023-11-04T05:47:47.049Z,7.32
2023-11-04T05:48:37.822Z,7.31
2023-11-04T05:49:28.729Z,7.29
2023-11-04T05:50:19.556Z,7.31
2023-11-04T05:51:10.436Z,7.31
2023-11-04T05:52:01.331Z,7.29
2023-11-04T05:52:52.175Z,7.29
2023-11-04T05:53:43.025Z,7.31
2023-11-04T05:54:33.889Z,7.27
2023-11-04T05:55:25.251Z,7.29
2023-11-04T05:56:16.053Z,7.26
2023-11-04T05:57:07.065Z,7.27
2023-11-04T05:57:57.924Z,7.26
2023-11-04T05:58:48.990Z,7.26
2023-11-04T05:59:39.881Z,7.27
2023-11-04T06:00:30.796Z,7.23
2023-11-04T06:01:21.624Z,7.23
2023-11-04T06:02:12.499Z,7.23
2023-11-04T06:03:03.421Z,7.23
2023-11-04T06:03:54.489Z,7.23
2023-11-04T06:04:45.542Z,7.20
2023-11-04T06:05:36.397Z,7.23
2023-11-04T06:06:27.338Z,7.20
2023-11-04T06:07:18.245Z,7.19
2023-11-04T06:08:09.132Z,7.19
2023-11-04T06:08:59.998Z,7.20
2023-11-04T06:09:50.876Z,7.17
2023-11-04T06:10:41.749Z,7.16
2023-11-04T06:11:32.647Z,7.15
2023-11-04T06:12:23.509Z,7.16
2023-11-04T06:13:14.390Z,7.13
2023-11-04T06:14:05.293Z,7.12
2023-11-04T06:14:56.162Z,7.13
2023-11-04T06:15:47.132Z,7.12
2023-11-04T06:16:37.967Z,7.12
2023-11-04T06:17:28.878Z,7.12
2023-11-04T06:18:19.848Z,7.12
2023-11-04T06:19:10.768Z,7.12
2023-11-04T06:20:01.660Z,7.08
2023-11-04T06:20:52.548Z,7.09
2023-11-04T06:21:43.467Z,7.08
2023-11-04T06:22:34.314Z,7.09
2023-11-04T06:23:25.224Z,7.07
2023-11-04T06:24:16.091Z,7.07
2023-11-04T06:25:09.238Z,7.05
2023-11-04T06:25:58.055Z,7.02
2023-11-04T06:26:49.023Z,7.04
2023-11-04T06:27:39.881Z,7.04
2023-11-04T06:28:30.741Z,7.04
2023-11-04T06:29:21.658Z,7.02
2023-11-04T06:30:12.518Z,7.02
2023-11-04T06:31:03.426Z,7.01
2023-11-04T06:31:54.288Z,7.02
2023-11-04T06:32:45.204Z,7.01
2023-11-04T06:33:36.140Z,7.01
2023-11-04T06:34:27.078Z,7.02
2023-11-04T06:35:17.956Z,7.02
2023-11-04T06:36:08.853Z,7.02
2023-11-04T06:36:59.773Z,7.01
2023-11-04T06:37:50.658Z,6.99
2023-11-04T06:38:41.551Z,7.01
2023-11-04T06:39:32.490Z,6.99
2023-11-04T06:40:23.339Z,6.99
2023-11-04T06:41:14.241Z,7.01
2023-11-04T06:42:05.178Z,6.97
2023-11-04T06:42:56.100Z,6.97
2023-11-04T06:43:46.958Z,6.98
2023-11-04T06:44:37.861Z,6.97
2023-11-04T06:45:28.793Z,6.95
2023-11-04T06:46:19.675Z,6.97
2023-11-04T06:47:10.589Z,6.97
2023-11-04T06:48:01.594Z,6.97
2023-11-04T06:48:52.528Z,6.95
2023-11-04T06:49:43.417Z,6.98
2023-11-04T06:50:34.344Z,6.98
2023-11-04T06:51:25.260Z,7.01
2023-11-04T06:52:16.151Z,7.04
2023-11-04T06:53:07.072Z,7.05
2023-11-04T06:53:57.981Z,7.08
2023-11-04T06:54:48.981Z,7.08
2023-11-04T06:55:39.955Z,7.13
2023-11-04T06:56:30.876Z,7.13
2023-11-04T06:57:21.822Z,7.16
2023-11-04T06:58:12.760Z,7.17
2023-11-04T06:59:03.679Z,7.19
2023-11-04T06:59:54.582Z,7.17
2023-11-04T07:00:45.540Z,7.22
2023-11-04T07:01:36.410Z,7.20
2023-11-04T07:02:27.414Z,7.22
2023-11-04T07:03:18.425Z,7.22
2023-11-04T07:04:09.375Z,7.23
2023-11-04T07:05:00.424Z,7.24
2023-11-04T07:05:51.352Z,7.23
2023-11-04T07:06:42.281Z,7.26
2023-11-04T07:07:33.178Z,7.29
2023-11-04T07:08:24.084Z,7.29
2023-11-04T07:09:15.010Z,7.34
2023-11-04T07:10:05.948Z,7.37
2023-11-04T07:10:56.816Z,7.38
2023-11-04T07:11:47.713Z,7.37
2023-11-04T07:12:38.715Z,7.40
2023-11-04T07:13:29.636Z,7.42
2023-11-04T07:14:20.520Z,7.44
2023-11-04T07:15:11.459Z,7.42
2023-11-04T07:16:02.482Z,7.49
2023-11-04T07:16:53.309Z,7.47
2023-11-04T07:17:44.258Z,7.52
2023-11-04T07:18:35.224Z,7.53
2023-11-04T07:19:26.149Z,7.56
2023-11-04T07:20:17.059Z,7.58
2023-11-04T07:21:07.949Z,7.60
2023-11-04T07:21:58.890Z,7.62
2023-11-04T07:22:49.769Z,7.59
2023-11-04T07:23:40.754Z,7.62
2023-11-04T07:24:31.710Z,7.62
2023-11-04T07:25:22.586Z,7.67
2023-11-04T07:26:13.492Z,7.71
2023-11-04T07:27:04.396Z,7.74
2023-11-04T07:27:55.349Z,7.78
2023-11-04T07:28:47.602Z,7.81
2023-11-04T07:29:37.442Z,7.82
2023-11-04T07:30:28.395Z,7.85
2023-11-04T07:31:19.376Z,7.89
2023-11-04T07:32:10.252Z,7.93
2023-11-04T07:33:01.267Z,7.94
2023-11-04T07:33:52.227Z,7.97
2023-11-04T07:34:43.207Z,7.99
2023-11-04T07:35:34.077Z,8.00
2023-11-04T07:36:25.004Z,8.00
2023-11-04T07:37:15.937Z,8.00
2023-11-04T07:38:06.824Z,8.03
2023-11-04T07:38:57.730Z,8.03
2023-11-04T07:39:48.686Z,8.03
2023-11-04T07:40:39.547Z,8.02
2023-11-04T07:41:30.444Z,8.03
2023-11-04T07:42:21.376Z,8.04
2023-11-04T07:43:12.296Z,8.08
2023-11-04T07:44:03.177Z,8.11
2023-11-04T07:44:54.094Z,8.14
2023-11-04T07:45:45.039Z,8.18
2023-11-04T07:46:35.965Z,8.18
2023-11-04T07:47:26.942Z,8.22
2023-11-04T07:48:17.996Z,8.26
2023-11-04T07:49:08.964Z,8.32
2023-11-04T07:49:59.848Z,8.30
2023-11-04T07:50:50.763Z,8.35
2023-11-04T07:51:41.722Z,8.36
2023-11-04T07:52:33.502Z,8.37
2023-11-04T07:53:23.257Z,8.39
2023-11-04T07:54:14.197Z,8.42
2023-11-04T07:55:05.209Z,8.44
2023-11-04T07:55:56.072Z,8.45
2023-11-04T07:56:46.975Z,8.44
2023-11-04T07:57:37.913Z,8.45
2023-11-04T07:58:28.853Z,8.48
2023-11-04T07:59:19.753Z,8.53
2023-11-04T08:00:10.675Z,8.58
2023-11-04T08:01:01.682Z,8.57
2023-11-04T08:01:52.563Z,8.63
2023-11-04T08:02:43.509Z,8.69
2023-11-04T08:03:34.571Z,8.78
2023-11-04T08:04:25.512Z,8.83
2023-11-04T08:05:16.648Z,8.87
2023-11-04T08:06:07.708Z,8.97
2023-11-04T08:06:58.609Z,9.12
2023-11-04T08:07:49.529Z,9.20
2023-11-04T08:08:40.491Z,9.25
2023-11-04T08:09:31.415Z,9.25
2023-11-04T08:10:22.314Z,9.24
2023-11-04T08:11:13.254Z,9.24
2023-11-04T08:12:04.189Z,9.27
2023-11-04T08:12:55.170Z,9.31
2023-11-04T08:13:46.115Z,9.39
2023-11-04T08:14:37.012Z,9.45
2023-11-04T08:15:27.991Z,9.52
2023-11-04T08:16:18.916Z,9.64
2023-11-04T08:17:09.830Z,9.75
2023-11-04T08:18:00.842Z,9.99
2023-11-04T08:18:51.893Z,10.71
2023-11-04T08:19:42.840Z,11.29
2023-11-04T08:20:33.786Z,12.12
2023-11-04T08:21:24.801Z,12.79
2023-11-04T08:22:15.771Z,12.52
2023-11-04T08:23:06.650Z,12.09
2023-11-04T08:23:57.571Z,11.71
2023-11-04T08:24:48.501Z,11.38
2023-11-04T08:25:39.361Z,11.06
2023-11-04T08:26:30.280Z,10.80
2023-11-04T08:27:21.172Z,10.58
2023-11-04T08:28:12.124Z,10.37
2023-11-04T08:29:03.031Z,10.21
2023-11-04T08:29:53.948Z,10.04
2023-11-04T08:30:44.854Z,9.91
2023-11-04T08:31:35.754Z,9.82
2023-11-04T08:32:26.699Z,9.71
2023-11-04T08:33:17.650Z,9.67
2023-11-04T08:34:08.601Z,9.60
2023-11-04T08:34:59.182Z,9.56
2023-11-04T08:35:50.118Z,9.50
2023-11-04T08:36:41.065Z,9.49
2023-11-04T08:37:31.928Z,9.43
2023-11-04T08:38:22.834Z,9.42
2023-11-04T08:39:13.750Z,9.38
2023-11-04T08:40:04.730Z,9.39
2023-11-04T08:40:55.674Z,9.49
2023-11-04T08:41:46.571Z,9.49
2023-11-04T08:42:37.658Z,9.56
2023-11-04T08:43:28.567Z,9.61
2023-11-04T08:44:19.497Z,9.63
2023-11-04T08:45:10.392Z,9.64
2023-11-04T08:46:01.314Z,9.60
2023-11-04T08:46:52.225Z,9.57
2023-11-04T08:47:43.245Z,9.49
2023-11-04T08:48:34.213Z,9.45
2023-11-04T08:49:25.235Z,9.79
2023-11-04T08:50:16.228Z,12.08
2023-11-04T08:51:07.178Z,14.78
2023-11-04T08:51:58.200Z,17.29
2023-11-04T08:52:49.118Z,19.68
2023-11-04T08:53:40.098Z,21.83
2023-11-04T08:54:31.086Z,23.80
2023-11-04T08:55:22.024Z,25.52
2023-11-04T08:56:12.994Z,26.96
2023-11-04T08:57:03.942Z,28.26
2023-11-04T08:57:54.979Z,29.35
2023-11-04T08:58:45.920Z,30.27
2023-11-04T08:59:36.896Z,31.23
2023-11-04T09:00:27.830Z,32.15
2023-11-04T09:01:18.793Z,32.98
2023-11-04T09:02:09.774Z,33.63
2023-11-04T09:03:00.788Z,34.08
2023-11-04T09:03:58.649Z,34.42
2023-11-04T09:04:45.177Z,34.66
2023-11-04T09:05:34.614Z,34.88
2023-11-04T09:06:24.396Z,34.99
2023-11-04T09:07:15.442Z,35.03
2023-11-04T09:08:06.454Z,35.07
2023-11-04T09:08:57.412Z,35.06
2023-11-04T09:09:48.409Z,35.01
2023-11-04T09:10:39.319Z,34.92
2023-11-04T09:11:30.285Z,34.81
2023-11-04T09:12:24.426Z,34.72
2023-11-04T09:13:11.938Z,33.83
2023-11-04T09:14:02.866Z,33.64
2023-11-04T09:14:53.881Z,33.42
2023-11-04T09:15:44.851Z,33.61
2023-11-04T09:16:35.809Z,33.74
2023-11-04T09:17:26.913Z,33.06
2023-11-04T09:18:20.015Z,31.13
2023-11-04T09:19:08.807Z,28.88
2023-11-04T09:19:59.701Z,26.83
2023-11-04T09:20:50.632Z,25.06
2023-11-04T09:21:41.633Z,23.50
2023-11-04T09:22:32.565Z,22.20
2023-11-04T09:23:23.470Z,21.04
2023-11-04T09:24:14.396Z,19.98
2023-11-04T09:25:05.372Z,19.06
2023-11-04T09:25:56.239Z,18.22
2023-11-04T09:26:47.161Z,17.43
2023-11-04T09:27:38.274Z,16.74
2023-11-04T09:28:29.156Z,16.15
2023-11-04T09:29:20.066Z,15.66
2023-11-04T09:30:11.082Z,15.23
2023-11-04T09:31:02.035Z,14.84
2023-11-04T09:31:52.975Z,14.50
2023-11-04T09:32:43.876Z,14.25
2023-11-04T09:33:34.998Z,13.99
2023-11-04T09:34:26.091Z,13.74
2023-11-04T09:35:17.073Z,13.55
2023-11-04T09:36:07.990Z,13.38
2023-11-04T09:36:58.944Z,13.24
2023-11-04T09:37:49.826Z,13.11
2023-11-04T09:38:40.745Z,13.02
2023-11-04T09:39:31.665Z,12.88
2023-11-04T09:40:22.564Z,12.74
2023-11-04T09:41:13.497Z,12.60
2023-11-04T09:42:04.420Z,12.45
2023-11-04T09:42:55.320Z,12.37
2023-11-04T09:43:46.250Z,12.27
2023-11-04T09:44:37.184Z,12.20
2023-11-04T09:45:28.128Z,12.16
2023-11-04T09:46:19.039Z,12.13
2023-11-04T09:47:10.028Z,12.11
2023-11-04T09:48:01.055Z,12.20
2023-11-04T09:48:52.007Z,12.31
2023-11-04T09:49:42.961Z,12.39
2023-11-04T09:50:33.863Z,12.41
2023-11-04T09:51:24.791Z,12.39
2023-11-04T09:52:15.735Z,12.34
2023-11-04T09:53:06.669Z,12.38
2023-11-04T09:53:57.618Z,12.45
2023-11-04T09:54:48.556Z,12.46
2023-11-04T09:55:39.477Z,12.45
2023-11-04T09:56:30.429Z,12.45
2023-11-04T09:57:21.342Z,12.45
2023-11-04T09:58:12.310Z,12.45
2023-11-04T09:59:03.232Z,12.49
2023-11-04T09:59:54.149Z,12.48
2023-11-04T10:00:45.132Z,12.42
2023-11-04T10:01:35.999Z,12.31
2023-11-04T10:02:26.958Z,12.21
2023-11-04T10:03:17.989Z,12.08
2023-11-04T10:04:09.145Z,11.97
2023-11-04T10:05:00.127Z,11.83
2023-11-04T10:05:51.025Z,11.74
2023-11-04T10:06:41.965Z,11.67
2023-11-04T10:07:32.853Z,11.59
2023-11-04T10:08:23.762Z,11.54
2023-11-04T10:09:14.678Z,11.47
2023-11-04T10:10:13.394Z,11.43
2023-11-04T10:10:57.500Z,11.35
2023-11-04T10:11:47.207Z,11.29
2023-11-04T10:12:38.108Z,11.28
2023-11-04T10:13:29.038Z,11.27
2023-11-04T10:14:19.956Z,11.21
2023-11-04T10:15:10.851Z,11.24
2023-11-04T10:16:01.814Z,11.20
2023-11-04T10:16:52.671Z,11.19
2023-11-04T10:17:43.617Z,11.20
2023-11-04T10:18:34.571Z,11.21
2023-11-04T10:19:25.577Z,11.21
2023-11-04T10:20:16.461Z,11.27
2023-11-04T10:21:07.701Z,11.38
2023-11-04T10:21:58.154Z,11.39
2023-11-04T10:22:49.021Z,11.41
2023-11-04T10:23:39.947Z,11.43
2023-11-04T10:24:30.897Z,11.41
2023-11-04T10:25:21.808Z,11.41
2023-11-04T10:26:12.737Z,11.43
2023-11-04T10:27:03.654Z,11.44
2023-11-04T10:27:54.620Z,11.47
2023-11-04T10:28:45.541Z,11.50
2023-11-04T10:29:36.446Z,11.50
2023-11-04T10:30:27.373Z,11.53
2023-11-04T10:31:18.322Z,11.56
2023-11-04T10:32:09.241Z,11.57
2023-11-04T10:33:00.245Z,11.61
2023-11-04T10:33:51.342Z,11.68
2023-11-04T10:34:42.349Z,11.72
2023-11-04T10:35:33.289Z,11.78
2023-11-04T10:36:24.243Z,11.82
2023-11-04T10:37:15.815Z,11.83
2023-11-04T10:38:06.426Z,11.83
2023-11-04T10:38:57.331Z,11.83
2023-11-04T10:39:48.361Z,11.78
2023-11-04T10:40:39.283Z,11.78
2023-11-04T10:41:30.169Z,11.77
2023-11-04T10:42:21.103Z,11.75
2023-11-04T10:43:12.001Z,11.72
2023-11-04T10:44:02.905Z,11.71
2023-11-04T10:44:53.814Z,11.70
2023-11-04T10:45:44.732Z,11.70
2023-11-04T10:46:35.668Z,11.68
2023-11-04T10:47:26.585Z,11.67
2023-11-04T10:48:17.496Z,11.67
2023-11-04T10:49:08.577Z,11.67
2023-11-04T10:49:59.452Z,11.67
2023-11-04T10:50:50.369Z,11.67
2023-11-04T10:51:41.327Z,11.70
2023-11-04T10:52:32.235Z,11.72
2023-11-04T10:53:23.168Z,11.78
2023-11-04T10:54:14.105Z,11.83
2023-11-04T10:55:05.071Z,11.89
2023-11-04T10:55:55.995Z,11.90
2023-11-04T10:56:46.920Z,12.05
2023-11-04T10:57:37.928Z,12.23
2023-11-04T10:58:28.843Z,12.38
2023-11-04T10:59:19.810Z,12.46
2023-11-04T11:00:10.746Z,12.57
2023-11-04T11:01:01.691Z,12.63
2023-11-04T11:01:52.631Z,12.69
2023-11-04T11:02:43.568Z,12.70
2023-11-04T11:03:34.640Z,12.74
2023-11-04T11:04:25.718Z,12.77
2023-11-04T11:05:16.792Z,12.85
2023-11-04T11:06:07.594Z,12.95
2023-11-04T11:06:58.645Z,13.02
2023-11-04T11:07:49.599Z,13.09
2023-11-04T11:08:40.490Z,13.15
2023-11-04T11:09:31.413Z,13.18
2023-11-04T11:10:22.351Z,13.22
2023-11-04T11:11:13.291Z,13.32
2023-11-04T11:12:04.228Z,13.37